createdAt,value
2022-10-28T00:01:42.149Z,98930.09
2022-10-28T00:04:08.686Z,98936.25
2022-10-28T00:06:35.559Z,98927.44
2022-10-28T00:09:02.318Z,98928.47
2022-10-28T00:11:32.069Z,98933.81
2022-10-28T00:14:00.037Z,98928.72
2022-10-28T00:16:28.340Z,98925.53
2022-10-28T00:18:55.101Z,98923.66
2022-10-28T00:21:27.349Z,98916.47
2022-10-28T00:23:54.126Z,98922.59
2022-10-28T00:26:22.674Z,98921.78
2022-10-28T00:28:50.974Z,98921.78
2022-10-28T00:31:18.554Z,98930.59
2022-10-28T00:33:45.041Z,98922.59
2022-10-28T00:36:11.662Z,98924.47
2022-10-28T00:38:38.424Z,98926.31
2022-10-28T00:41:05.130Z,98930.59
2022-10-28T00:43:36.405Z,98923.09
2022-10-28T00:46:03.199Z,98923.09
2022-10-28T00:48:29.652Z,98928.41
2022-10-28T00:50:56.113Z,98919.88
2022-10-28T00:53:26.780Z,98921.47
2022-10-28T00:55:53.241Z,98914.53
2022-10-28T00:58:21.119Z,98927.63
2022-10-28T01:00:47.570Z,98933.75
2022-10-28T01:03:18.072Z,98917.22
2022-10-28T01:05:48.609Z,98911.31
2022-10-28T01:08:15.092Z,98923.59
2022-10-28T01:10:56.756Z,98919.06
2022-10-28T01:13:37.010Z,98916.63
2022-10-28T01:16:24.565Z,98915.03
2022-10-28T01:19:12.960Z,98911.31
2022-10-28T01:22:04.620Z,98904.38
2022-10-28T01:24:55.365Z,98902.75
2022-10-28T01:27:55.286Z,98899.84
2022-10-28T01:30:25.673Z,98899.03
2022-10-28T01:33:04.101Z,98902.50
2022-10-28T01:35:40.226Z,98894.50
2022-10-28T01:38:21.163Z,98891.28
2022-10-28T01:41:09.438Z,98896.63
2022-10-28T01:43:59.146Z,98889.44
2022-10-28T01:46:42.368Z,98888.63
2022-10-28T01:49:12.123Z,98886.75
2022-10-28T01:51:49.847Z,98878.22
2022-10-28T01:54:17.787Z,98873.69
2022-10-28T01:56:44.247Z,98878.22
2022-10-28T01:59:17.160Z,98873.94
2022-10-28T02:01:43.756Z,98870.22
2022-10-28T02:04:10.346Z,98869.66
2022-10-28T02:06:36.822Z,98867.78
2022-10-28T02:09:21.615Z,98863.22
2022-10-28T02:12:03.566Z,98864.59
2022-10-28T02:14:51.761Z,98860.31
2022-10-28T02:17:24.188Z,98865.66
2022-10-28T02:20:27.570Z,98859.47
2022-10-28T02:23:12.140Z,98856.59
2022-10-28T02:25:43.141Z,98858.69
2022-10-28T02:30:58.051Z,98845.63
2022-10-28T02:33:27.115Z,98850.94
2022-10-28T02:35:59.530Z,98849.34
2022-10-28T02:38:33.582Z,98848.53
2022-10-28T02:41:00.481Z,98848.78
2022-10-28T02:43:27.022Z,98840.78
2022-10-28T02:45:56.025Z,98840.78
2022-10-28T02:48:30.390Z,98831.75
2022-10-28T02:51:02.988Z,98831.22
2022-10-28T02:53:32.094Z,98834.94
2022-10-28T02:55:59.796Z,98828.00
2022-10-28T02:58:27.813Z,98822.69
2022-10-28T03:00:54.549Z,98812.03
2022-10-28T03:03:21.078Z,98807.75
2022-10-28T03:05:47.536Z,98812.56
2022-10-28T03:08:14.082Z,98815.22
2022-10-28T03:10:40.615Z,98817.91
2022-10-28T03:13:07.458Z,98823.22
2022-10-28T03:15:34.029Z,98834.69
2022-10-28T03:18:00.523Z,98831.00
2022-10-28T03:20:26.961Z,98832.28
2022-10-28T03:22:53.628Z,98825.09
2022-10-28T03:25:20.207Z,98831.47
2022-10-28T03:27:46.837Z,98821.09
2022-10-28T03:30:14.536Z,98816.56
2022-10-28T03:32:44.057Z,98810.41
2022-10-28T03:35:10.538Z,98801.59
2022-10-28T03:37:37.046Z,98817.84
2022-10-28T03:40:07.754Z,98797.59
2022-10-28T03:42:35.455Z,98791.72
2022-10-28T03:45:04.399Z,98785.31
2022-10-28T03:47:30.865Z,98778.38
2022-10-28T03:49:57.356Z,98789.06
2022-10-28T03:52:23.820Z,98783.72
2022-10-28T03:54:50.305Z,98794.63
2022-10-28T03:57:16.881Z,98783.94
2022-10-28T03:59:43.352Z,98783.94
2022-10-28T04:02:09.955Z,98793.00
2022-10-28T04:04:36.611Z,98806.06
2022-10-28T04:07:03.070Z,98798.06
2022-10-28T04:09:29.527Z,98795.41
2022-10-28T04:11:56.045Z,98790.88
2022-10-28T04:14:22.515Z,98783.72
2022-10-28T04:16:48.970Z,98785.56
2022-10-28T04:19:15.421Z,98790.66
2022-10-28T04:21:41.913Z,98778.38
2022-10-28T04:24:08.424Z,98780.22
2022-10-28T04:26:35.252Z,98773.28
2022-10-28T04:29:01.706Z,98782.66
2022-10-28T04:31:28.199Z,98778.38
2022-10-28T04:33:54.656Z,98774.09
2022-10-28T04:36:21.120Z,98767.72
2022-10-28T04:38:47.595Z,98778.38
2022-10-28T04:41:14.514Z,98769.56
2022-10-28T04:43:40.975Z,98763.44
2022-10-28T04:46:07.716Z,98767.97
2022-10-28T04:48:34.253Z,98759.16
2022-10-28T04:51:00.767Z,98766.34
2022-10-28T04:53:27.281Z,98756.50
2022-10-28T04:56:00.027Z,98749.56
2022-10-28T04:58:26.895Z,98740.47
2022-10-28T05:00:53.339Z,98753.28
2022-10-28T05:03:19.812Z,98750.63
2022-10-28T05:05:46.936Z,98750.06
2022-10-28T05:08:13.392Z,98756.75
2022-10-28T05:10:39.856Z,98749.00
2022-10-28T05:13:06.339Z,98747.91
2022-10-28T05:15:32.801Z,98754.59
2022-10-28T05:17:59.319Z,98742.81
2022-10-28T05:20:25.774Z,98741.53
2022-10-28T05:22:53.922Z,98745.00
2022-10-28T05:25:20.898Z,98743.38
2022-10-28T05:27:47.408Z,98746.06
2022-10-28T05:30:13.927Z,98748.72
2022-10-28T05:32:40.754Z,98750.59
2022-10-28T05:35:07.690Z,98745.25
2022-10-28T05:37:34.171Z,98745.25
2022-10-28T05:40:00.628Z,98746.84
2022-10-28T05:42:27.109Z,98758.31
2022-10-28T05:44:53.595Z,98751.38
2022-10-28T05:47:20.106Z,98747.91
2022-10-28T05:49:46.571Z,98742.59
2022-10-28T05:52:13.041Z,98741.75
2022-10-28T05:54:39.503Z,98748.72
2022-10-28T05:57:05.973Z,98747.09
2022-10-28T05:59:32.418Z,98745.25
2022-10-28T06:01:58.942Z,98737.25
2022-10-28T06:04:25.444Z,98741.75
2022-10-28T06:06:54.786Z,98745.47
2022-10-28T06:09:21.249Z,98742.03
2022-10-28T06:11:46.290Z,98745.75
2022-10-28T06:14:12.741Z,98755.34
2022-10-28T06:16:39.239Z,98746.53
2022-10-28T06:19:05.697Z,98762.28
2022-10-28T06:21:32.142Z,98756.41
2022-10-28T06:23:58.594Z,98757.47
2022-10-28T06:26:25.044Z,98761.63
2022-10-28T06:28:51.506Z,98765.03
2022-10-28T06:31:17.988Z,98769.56
2022-10-28T06:33:44.463Z,98773.34
2022-10-28T06:36:11.469Z,98774.22
2022-10-28T06:38:37.949Z,98776.31
2022-10-28T06:41:04.411Z,98776.81
2022-10-28T06:43:30.883Z,98770.16
2022-10-28T06:46:01.312Z,98767.50
2022-10-28T06:48:29.333Z,98768.88
2022-10-28T06:50:56.338Z,98773.94
2022-10-28T06:53:22.876Z,98783.06
2022-10-28T06:55:56.270Z,98788.38
2022-10-28T06:58:22.968Z,98782.25
2022-10-28T07:00:49.516Z,98776.66
2022-10-28T07:03:16.180Z,98793.97
2022-10-28T07:05:42.682Z,98807.03
2022-10-28T07:08:09.161Z,98792.00
2022-10-28T07:10:35.621Z,98799.41
2022-10-28T07:13:02.093Z,98807.59
2022-10-28T07:15:28.731Z,98799.66
2022-10-28T07:17:55.764Z,98802.81
2022-10-28T07:20:22.641Z,98807.34
2022-10-28T07:22:50.150Z,98797.16
2022-10-28T07:25:16.618Z,98803.00
2022-10-28T07:27:43.158Z,98804.34
2022-10-28T07:30:10.291Z,98799.34
2022-10-28T07:32:36.784Z,98801.75
2022-10-28T07:35:03.335Z,98797.47
2022-10-28T07:37:30.188Z,98795.06
2022-10-28T07:39:56.638Z,98789.81
2022-10-28T07:42:23.116Z,98794.00
2022-10-28T07:44:49.591Z,98789.91
2022-10-28T07:47:17.605Z,98790.97
2022-10-28T07:49:44.278Z,98784.53
2022-10-28T07:52:10.737Z,98790.63
2022-10-28T07:54:37.195Z,98794.41
2022-10-28T07:57:03.690Z,98801.84
2022-10-28T07:59:30.194Z,98807.47
2022-10-28T08:01:56.731Z,98799.13
2022-10-28T08:04:23.253Z,98798.00
2022-10-28T08:06:49.804Z,98796.47
2022-10-28T08:09:16.469Z,98795.94
2022-10-28T08:11:42.915Z,98799.59
2022-10-28T08:14:09.442Z,98798.66
2022-10-28T08:16:35.898Z,98800.34
2022-10-28T08:19:07.529Z,98800.91
2022-10-28T08:21:34.396Z,98796.31
2022-10-28T08:24:01.187Z,98795.66
2022-10-28T08:26:27.651Z,98791.50
2022-10-28T08:28:54.131Z,98796.31
2022-10-28T08:31:20.609Z,98803.31
2022-10-28T08:33:47.137Z,98803.94
2022-10-28T08:36:15.132Z,98788.00
2022-10-28T08:38:45.705Z,98782.75
2022-10-28T08:41:28.117Z,98784.84
2022-10-28T08:43:57.590Z,98789.69
2022-10-28T08:46:46.107Z,98785.47
2022-10-28T08:49:14.641Z,98778.91
2022-10-28T08:52:02.621Z,98784.09
2022-10-28T08:54:50.855Z,98786.00
2022-10-28T08:57:22.141Z,98779.50
2022-10-28T08:59:50.047Z,98786.44
2022-10-28T09:02:24.258Z,98781.44
2022-10-28T09:05:00.261Z,98782.53
2022-10-28T09:07:27.729Z,98787.84
2022-10-28T09:09:54.332Z,98787.84
2022-10-28T09:12:35.878Z,98772.69
2022-10-28T09:15:34.955Z,98770.56
2022-10-28T09:18:22.118Z,98771.63
2022-10-28T09:20:56.177Z,98768.94
2022-10-28T09:23:23.379Z,98776.72
2022-10-28T09:26:24.501Z,98778.34
2022-10-28T09:29:15.169Z,98781.00
2022-10-28T09:31:44.465Z,98777.56
2022-10-28T09:34:26.170Z,98779.16
2022-10-28T09:37:15.577Z,98782.94
2022-10-28T09:39:44.007Z,98781.06
2022-10-28T09:42:14.917Z,98779.22
2022-10-28T09:44:53.878Z,98791.28
2022-10-28T09:47:37.605Z,98790.97
2022-10-28T09:50:07.456Z,98785.44
2022-10-28T09:52:40.147Z,98783.81
2022-10-28T09:55:09.245Z,98783.56
2022-10-28T09:57:35.720Z,98786.56
2022-10-28T10:00:02.250Z,98787.31
2022-10-28T10:02:32.976Z,98785.22
2022-10-28T10:05:00.385Z,98788.41
2022-10-28T10:07:44.539Z,98776.94
2022-10-28T10:10:23.588Z,98783.38
2022-10-28T10:12:52.395Z,98775.56
2022-10-28T10:15:45.007Z,98787.13
2022-10-28T10:18:16.845Z,98781.50
2022-10-28T10:20:51.963Z,98789.50
2022-10-28T10:23:37.722Z,98794.31
2022-10-28T10:26:08.232Z,98786.84
2022-10-28T10:28:48.444Z,98790.34
2022-10-28T10:31:25.628Z,98785.25
2022-10-28T10:33:53.171Z,98784.22
2022-10-28T10:36:23.769Z,98779.72
2022-10-28T10:38:54.620Z,98775.69
2022-10-28T10:41:40.693Z,98779.72
2022-10-28T10:44:22.390Z,98775.97
2022-10-28T10:47:05.129Z,98771.72
2022-10-28T10:49:33.589Z,98764.50
2022-10-28T10:52:02.505Z,98773.88
2022-10-28T10:54:32.254Z,98772.00
2022-10-28T10:57:09.187Z,98770.16
2022-10-28T10:59:37.653Z,98775.50
2022-10-28T11:02:04.252Z,98771.75
2022-10-28T11:04:30.909Z,98770.44
2022-10-28T11:06:57.447Z,98769.88
2022-10-28T11:09:34.269Z,98766.69
2022-10-28T11:12:00.781Z,98769.38
2022-10-28T11:14:32.355Z,98757.34
2022-10-28T11:17:00.081Z,98758.72
2022-10-28T11:19:36.977Z,98751.22
2022-10-28T11:22:38.231Z,98741.63
2022-10-28T11:25:28.018Z,98748.28
2022-10-28T11:28:20.878Z,98745.09
2022-10-28T11:33:46.419Z,98746.38
2022-10-28T11:36:27.346Z,98747.97
2022-10-28T11:39:11.603Z,98747.97
2022-10-28T11:41:47.721Z,98755.69
2022-10-28T11:44:41.896Z,98755.41
2022-10-28T11:47:08.206Z,98749.81
2022-10-28T11:50:13.700Z,98751.13
2022-10-28T11:53:14.439Z,98746.84
2022-10-28T11:55:53.064Z,98732.41
2022-10-28T11:58:19.381Z,98734.28
2022-10-28T12:01:04.970Z,98733.47
2022-10-28T12:03:49.125Z,98740.16
2022-10-28T12:06:18.490Z,98739.34
2022-10-28T12:09:13.065Z,98733.16
2022-10-28T12:11:57.733Z,98731.72
2022-10-28T12:14:32.806Z,98727.13
2022-10-28T12:17:06.446Z,98727.91
2022-10-28T12:19:35.086Z,98727.91
2022-10-28T12:22:14.108Z,98732.69
2022-10-28T12:24:41.374Z,98727.34
2022-10-28T12:27:17.093Z,98728.97
2022-10-28T12:29:47.651Z,98726.06
2022-10-28T12:32:18.291Z,98719.09
2022-10-28T12:34:53.431Z,98725.53
2022-10-28T12:37:29.062Z,98724.44
2022-10-28T12:40:11.248Z,98717.22
2022-10-28T12:42:40.100Z,98720.91
2022-10-28T12:45:10.122Z,98719.34
2022-10-28T12:47:49.995Z,98712.75
2022-10-28T12:50:25.362Z,98708.50
2022-10-28T12:53:03.815Z,98704.75
2022-10-28T12:55:42.907Z,98707.41
2022-10-28T12:58:22.489Z,98706.63
2022-10-28T13:00:54.461Z,98705.56
2022-10-28T13:03:21.050Z,98701.28
2022-10-28T13:05:52.035Z,98707.63
2022-10-28T13:08:25.572Z,98699.53
2022-10-28T13:11:12.194Z,98692.59
2022-10-28T13:13:57.397Z,98691.50
2022-10-28T13:16:45.547Z,98688.28
2022-10-28T13:19:41.217Z,98686.09
2022-10-28T13:22:32.762Z,98689.03
2022-10-28T13:25:23.050Z,98689.81
2022-10-28T13:27:56.309Z,98685.84
2022-10-28T13:30:23.180Z,98691.50
2022-10-28T13:33:00.150Z,98685.94
2022-10-28T13:35:26.744Z,98684.88
2022-10-28T13:37:54.246Z,98684.06
2022-10-28T13:40:21.741Z,98688.88
2022-10-28T13:45:48.920Z,98677.66
2022-10-28T13:48:41.243Z,98672.03
2022-10-28T13:51:10.637Z,98685.66
2022-10-28T13:53:47.192Z,98668.84
2022-10-28T13:56:27.739Z,98672.81
2022-10-28T13:58:56.020Z,98672.84
2022-10-28T14:02:28.428Z,98673.91
2022-10-28T14:04:55.212Z,98663.75
2022-10-28T14:07:22.972Z,98665.91
2022-10-28T14:09:53.786Z,98664.84
2022-10-28T14:12:28.470Z,98663.50
2022-10-28T14:15:05.079Z,98666.72
2022-10-28T14:17:42.296Z,98671.22
2022-10-28T14:20:25.626Z,98670.16
2022-10-28T14:22:53.157Z,98668.53
2022-10-28T14:25:51.363Z,98660.53
2022-10-28T14:28:26.872Z,98663.72
2022-10-28T14:31:11.657Z,98660.00
2022-10-28T14:33:41.852Z,98666.38
2022-10-28T14:36:17.424Z,98661.59
2022-10-28T14:38:49.768Z,98659.19
2022-10-28T14:41:26.937Z,98662.91
2022-10-28T14:44:08.590Z,98659.72
2022-10-28T14:46:53.838Z,98663.19
2022-10-28T14:49:27.968Z,98662.63
2022-10-28T14:51:54.666Z,98652.78
2022-10-28T14:54:40.569Z,98653.28
2022-10-28T14:57:07.771Z,98650.34
2022-10-28T14:59:38.214Z,98649.81
2022-10-28T15:02:29.900Z,98651.94
2022-10-28T15:05:11.687Z,98651.41
2022-10-28T15:07:38.714Z,98655.41
2022-10-28T15:10:15.324Z,98658.06
2022-10-28T15:12:43.508Z,98664.47
2022-10-28T15:15:20.906Z,98667.94
2022-10-28T15:17:47.404Z,98667.94
2022-10-28T15:20:30.795Z,98672.75
2022-10-28T15:23:19.208Z,98675.16
2022-10-28T15:25:45.925Z,98678.84
2022-10-28T15:28:12.520Z,98660.97
2022-10-28T15:30:44.985Z,98671.66
2022-10-28T15:33:39.770Z,98668.22
2022-10-28T15:36:25.143Z,98664.75
2022-10-28T15:38:51.889Z,98667.97
2022-10-28T15:41:21.274Z,98673.59
2022-10-28T15:44:01.061Z,98670.16
2022-10-28T15:46:27.612Z,98678.97
2022-10-28T15:48:54.553Z,98676.84
2022-10-28T15:51:21.417Z,98685.41
2022-10-28T15:53:48.911Z,98687.00
2022-10-28T15:56:15.255Z,98684.09
2022-10-28T15:58:42.662Z,98689.97
2022-10-28T16:01:29.203Z,98686.22
2022-10-28T16:03:56.078Z,98690.50
2022-10-28T16:06:33.631Z,98691.31
2022-10-28T16:09:02.947Z,98693.19
2022-10-28T16:11:29.395Z,98691.59
2022-10-28T16:13:56.113Z,98703.09
2022-10-28T16:20:17.380Z,98706.56
2022-10-28T16:22:45.382Z,98714.84
2022-10-28T16:25:13.009Z,98714.03
2022-10-28T16:27:39.506Z,98717.53
2022-10-28T16:30:06.678Z,98723.66
2022-10-28T16:32:36.879Z,98721.00
2022-10-28T16:35:04.047Z,98726.84
2022-10-28T16:37:31.954Z,98718.84
2022-10-28T16:39:58.484Z,98730.06
2022-10-28T16:42:24.963Z,98723.69
2022-10-28T16:44:51.461Z,98729.25
2022-10-28T16:47:19.171Z,98730.91
2022-10-28T16:49:45.718Z,98731.41
2022-10-28T16:52:19.931Z,98737.53
2022-10-28T16:54:46.977Z,98732.47
2022-10-28T16:57:13.467Z,98731.66
2022-10-28T16:59:39.905Z,98737.81
2022-10-28T17:02:27.899Z,98745.53
2022-10-28T17:04:54.631Z,98758.13
2022-10-28T17:07:21.027Z,98751.97
2022-10-28T17:09:47.825Z,98750.09
2022-10-28T17:12:16.265Z,98758.91
2022-10-28T17:14:42.794Z,98747.44
2022-10-28T17:17:10.216Z,98746.38
2022-10-28T17:19:37.463Z,98750.38
2022-10-28T17:22:08.961Z,98752.78
2022-10-28T17:24:36.504Z,98750.09
2022-10-28T17:27:02.947Z,98762.38
2022-10-28T17:29:29.384Z,98754.66
2022-10-28T17:31:55.808Z,98764.00
2022-10-28T17:34:22.218Z,98767.50
2022-10-28T17:36:48.884Z,98765.63
2022-10-28T17:39:19.612Z,98762.16
2022-10-28T17:41:48.423Z,98767.50
2022-10-28T17:44:14.824Z,98770.16
2022-10-28T17:46:41.243Z,98773.63
2022-10-28T17:49:08.595Z,98770.41
2022-10-28T17:51:35.694Z,98764.81
2022-10-28T17:54:02.456Z,98773.34
2022-10-28T17:56:29.321Z,98783.22
2022-10-28T17:58:55.773Z,98786.69
2022-10-28T18:01:22.303Z,98788.00
2022-10-28T18:03:49.701Z,98790.44
2022-10-28T18:06:16.141Z,98784.03
2022-10-28T18:08:43.200Z,98787.75
2022-10-28T18:11:11.165Z,98782.41
2022-10-28T18:13:39.370Z,98788.56
2022-10-28T18:16:13.048Z,98795.78
2022-10-28T18:18:42.426Z,98792.03
2022-10-28T18:21:09.999Z,98786.69
2022-10-28T18:23:36.412Z,98792.81
2022-10-28T18:26:04.573Z,98792.81
2022-10-28T18:28:31.358Z,98793.91
2022-10-28T18:31:05.459Z,98789.34
2022-10-28T18:33:32.332Z,98796.81
2022-10-28T18:39:46.301Z,98799.25
2022-10-28T18:42:13.514Z,98797.63
2022-10-28T18:44:41.325Z,98802.16
2022-10-28T18:47:07.736Z,98802.97
2022-10-28T18:49:34.131Z,98807.25
2022-10-28T18:52:00.943Z,98812.81
2022-10-28T18:54:27.344Z,98812.59
2022-10-28T18:56:57.442Z,98810.72
2022-10-28T18:59:24.259Z,98815.25
2022-10-28T19:01:50.742Z,98817.38
2022-10-28T19:04:17.300Z,98817.38
2022-10-28T19:06:43.741Z,98811.00
2022-10-28T19:09:10.236Z,98819.22
2022-10-28T19:11:36.664Z,98820.31
2022-10-28T19:14:05.408Z,98822.44
2022-10-28T19:16:33.330Z,98825.91
2022-10-28T19:19:00.669Z,98832.06
2022-10-28T19:21:27.443Z,98842.16
2022-10-28T19:23:53.952Z,98842.16
2022-10-28T19:26:20.412Z,98849.66
2022-10-28T19:28:47.636Z,98842.16
2022-10-28T19:31:18.511Z,98843.22
2022-10-28T19:33:45.220Z,98850.44
2022-10-28T19:36:14.493Z,98851.25
2022-10-28T19:38:40.899Z,98851.50
2022-10-28T19:41:09.303Z,98853.13
2022-10-28T19:43:35.924Z,98858.47
2022-10-28T19:46:03.844Z,98868.38
2022-10-28T19:48:30.299Z,98867.56
2022-10-28T19:50:56.710Z,98860.34
2022-10-28T19:53:23.102Z,98872.09
2022-10-28T19:55:49.782Z,98870.50
2022-10-28T19:58:16.356Z,98873.41
2022-10-28T20:00:42.750Z,98879.81
2022-10-28T20:03:09.164Z,98884.88
2022-10-28T20:05:35.566Z,98881.69
2022-10-28T20:08:02.064Z,98897.69
2022-10-28T20:10:28.459Z,98899.31
2022-10-28T20:12:55.108Z,98897.97
2022-10-28T20:15:21.721Z,98903.53
2022-10-28T20:17:48.122Z,98905.41
2022-10-28T20:20:15.045Z,98916.34
2022-10-28T20:22:42.567Z,98911.81
2022-10-28T20:25:09.474Z,98913.69
2022-10-28T20:27:35.924Z,98919.00
2022-10-28T20:30:02.389Z,98927.03
2022-10-28T20:32:28.876Z,98920.09
2022-10-28T20:34:55.316Z,98913.09
2022-10-28T20:37:21.763Z,98927.03
2022-10-28T20:39:48.392Z,98934.47
2022-10-28T20:42:15.606Z,98932.63
2022-10-28T20:44:42.106Z,98932.88
2022-10-28T20:47:08.553Z,98929.66
2022-10-28T20:49:35.257Z,98936.63
2022-10-28T20:52:02.048Z,98933.16
2022-10-28T20:54:28.524Z,98937.69
2022-10-28T20:56:54.993Z,98945.63
2022-10-28T20:59:21.518Z,98954.53
2022-10-28T21:01:48.079Z,98944.38
2022-10-28T21:04:14.793Z,98955.88
2022-10-28T21:06:41.278Z,98952.91
2022-10-28T21:09:09.020Z,98956.66
2022-10-28T21:11:35.528Z,98955.78
2022-10-28T21:14:02.022Z,98958.72
2022-10-28T21:16:28.843Z,98959.22
2022-10-28T21:18:55.351Z,98958.16
2022-10-28T21:21:22.405Z,98952.53
2022-10-28T21:23:49.033Z,98945.81
2022-10-28T21:26:15.574Z,98959.97
2022-10-28T21:28:42.027Z,98954.41
2022-10-28T21:31:13.034Z,98953.03
2022-10-28T21:33:39.886Z,98949.81
2022-10-28T21:36:16.988Z,98936.16
2022-10-28T21:38:43.464Z,98947.38
2022-10-28T21:41:17.197Z,98951.69
2022-10-28T21:43:45.209Z,98950.88
2022-10-28T21:46:11.712Z,98949.25
2022-10-28T21:48:38.587Z,98944.16
2022-10-28T21:51:09.986Z,98944.94
2022-10-28T21:53:41.208Z,98940.88
2022-10-28T21:56:19.337Z,98952.34
2022-10-28T21:58:47.095Z,98950.16
2022-10-28T22:01:15.820Z,98953.09
2022-10-28T22:03:42.429Z,98954.13
2022-10-28T22:06:09.073Z,98955.44
2022-10-28T22:08:35.565Z,98959.16
2022-10-28T22:11:06.599Z,98961.00
2022-10-28T22:13:33.503Z,98959.66
2022-10-28T22:16:05.314Z,98958.03
2022-10-28T22:18:32.845Z,98956.66
2022-10-28T22:21:11.737Z,98976.94
2022-10-28T22:23:38.305Z,98973.75
2022-10-28T22:26:05.790Z,98975.34
2022-10-28T22:28:32.266Z,98971.63
2022-10-28T22:31:02.425Z,98968.41
2022-10-28T22:33:29.045Z,98972.94
2022-10-28T22:36:02.707Z,98983.59
2022-10-28T22:38:29.224Z,98985.47
2022-10-28T22:41:09.567Z,98991.03
2022-10-28T22:43:36.322Z,98989.44
2022-10-28T22:46:02.848Z,98982.50
2022-10-28T22:48:29.398Z,98987.03
2022-10-28T22:50:55.958Z,98996.09
2022-10-28T22:53:22.514Z,98991.56
2022-10-28T22:55:49.233Z,98998.44
2022-10-28T22:58:16.279Z,99000.31
2022-10-28T23:00:43.050Z,98996.03
2022-10-28T23:03:09.795Z,98991.97
2022-10-28T23:05:36.246Z,98996.50
2022-10-28T23:08:02.720Z,98999.19
2022-10-28T23:10:29.189Z,99004.78
2022-10-28T23:12:59.241Z,99004.19
2022-10-28T23:15:25.984Z,99006.06
2022-10-28T23:17:52.977Z,99001.78
2022-10-28T23:20:20.260Z,98987.88
2022-10-28T23:22:46.704Z,98997.75
2022-10-28T23:25:13.236Z,99001.47
2022-10-28T23:27:40.317Z,99007.88
2022-10-28T23:30:08.004Z,99012.41
2022-10-28T23:32:34.646Z,99006.00
2022-10-28T23:35:01.095Z,99001.47
2022-10-28T23:37:27.883Z,99002.53
2022-10-28T23:39:54.404Z,99002.53
2022-10-28T23:42:20.939Z,99008.94
2022-10-28T23:44:47.380Z,99009.72
2022-10-28T23:47:13.880Z,99008.94
2022-10-28T23:49:40.311Z,99011.59
2022-10-28T23:52:06.803Z,99008.34
2022-10-28T23:54:33.275Z,99014.47
2022-10-28T23:56:59.851Z,99013.69
2022-10-28T23:59:26.285Z,99012.06
